sensor_id;sensor_type;location;lat;lon;timestamp;pressure;altitude;pressure_sealevel;temperature;humidity
58821;BME280;70670;52.476;13.334;2023-09-07T00:01:49;101797.63;;;19.70;66.99
58821;BME280;70670;52.476;13.334;2023-09-07T00:04:18;101783.94;;;19.58;67.09
58821;BME280;70670;52.476;13.334;2023-09-07T00:06:44;101799.56;;;19.68;66.78
58821;BME280;70670;52.476;13.334;2023-09-07T00:09:10;101803.91;;;19.70;66.58
58821;BME280;70670;52.476;13.334;2023-09-07T00:11:37;101810.97;;;19.73;66.50
58821;BME280;70670;52.476;13.334;2023-09-07T00:14:03;101814.78;;;19.70;67.10
58821;BME280;70670;52.476;13.334;2023-09-07T00:16:32;101759.41;;;19.36;67.25
58821;BME280;70670;52.476;13.334;2023-09-07T00:19:01;101813.03;;;19.69;66.80
58821;BME280;70670;52.476;13.334;2023-09-07T00:21:28;101790.59;;;19.54;67.14
58821;BME280;70670;52.476;13.334;2023-09-07T00:23:54;101755.09;;;19.33;67.03
58821;BME280;70670;52.476;13.334;2023-09-07T00:26:20;101797.53;;;19.58;67.77
58821;BME280;70670;52.476;13.334;2023-09-07T00:28:46;101807.97;;;19.64;67.73
58821;BME280;70670;52.476;13.334;2023-09-07T00:31:12;101807.97;;;19.64;67.46
58821;BME280;70670;52.476;13.334;2023-09-07T00:33:37;101810.69;;;19.64;67.60
58821;BME280;70670;52.476;13.334;2023-09-07T00:36:03;101804.50;;;19.62;67.96
58821;BME280;70670;52.476;13.334;2023-09-07T00:38:29;101820.97;;;19.59;67.59
58821;BME280;70670;52.476;13.334;2023-09-07T00:40:55;101710.84;;;18.96;67.76
58821;BME280;70670;52.476;13.334;2023-09-07T00:43:20;101815.03;;;19.54;67.84
58821;BME280;70670;52.476;13.334;2023-09-07T00:45:46;101786.53;;;19.36;67.85
58821;BME280;70670;52.476;13.334;2023-09-07T00:48:13;101818.44;;;19.45;68.12
58821;BME280;70670;52.476;13.334;2023-09-07T00:50:39;101814.00;;;19.44;68.56
58821;BME280;70670;52.476;13.334;2023-09-07T00:53:04;101802.84;;;19.36;68.53
58821;BME280;70670;52.476;13.334;2023-09-07T00:55:33;101803.31;;;19.30;68.54
58821;BME280;70670;52.476;13.334;2023-09-07T00:58:03;101782.75;;;19.14;68.66
58821;BME280;70670;52.476;13.334;2023-09-07T01:00:28;101731.84;;;18.81;68.99
58821;BME280;70670;52.476;13.334;2023-09-07T01:02:54;101809.81;;;19.27;69.10
58821;BME280;70670;52.476;13.334;2023-09-07T01:05:29;101802.03;;;19.23;69.24
58821;BME280;70670;52.476;13.334;2023-09-07T01:08:01;101798.16;;;19.14;69.26
58821;BME280;70670;52.476;13.334;2023-09-07T01:10:29;101785.38;;;19.03;69.51
58821;BME280;70670;52.476;13.334;2023-09-07T01:12:54;101795.25;;;19.04;69.76
58821;BME280;70670;52.476;13.334;2023-09-07T01:15:20;101797.09;;;19.04;70.04
58821;BME280;70670;52.476;13.334;2023-09-07T01:17:46;101806.44;;;19.00;69.94
58821;BME280;70670;52.476;13.334;2023-09-07T01:20:13;101774.59;;;18.78;70.35
58821;BME280;70670;52.476;13.334;2023-09-07T01:22:39;101794.41;;;18.91;70.28
58821;BME280;70670;52.476;13.334;2023-09-07T01:25:06;101788.03;;;18.79;70.64
58821;BME280;70670;52.476;13.334;2023-09-07T01:27:33;101795.19;;;18.80;70.65
58821;BME280;70670;52.476;13.334;2023-09-07T01:29:58;101799.53;;;18.83;70.69
58821;BME280;70670;52.476;13.334;2023-09-07T01:32:24;101790.09;;;18.76;71.03
58821;BME280;70670;52.476;13.334;2023-09-07T01:34:54;101770.13;;;18.64;71.09
58821;BME280;70670;52.476;13.334;2023-09-07T01:37:21;101806.28;;;18.77;70.97
58821;BME280;70670;52.476;13.334;2023-09-07T01:39:47;101797.16;;;18.78;70.66
58821;BME280;70670;52.476;13.334;2023-09-07T01:42:14;101792.81;;;18.76;71.04
58821;BME280;70670;52.476;13.334;2023-09-07T01:44:39;101799.09;;;18.76;70.74
58821;BME280;70670;52.476;13.334;2023-09-07T01:47:05;101800.22;;;18.74;70.92
58821;BME280;70670;52.476;13.334;2023-09-07T01:49:30;101787.25;;;18.64;71.04
58821;BME280;70670;52.476;13.334;2023-09-07T01:51:56;101781.09;;;18.62;70.99
58821;BME280;70670;52.476;13.334;2023-09-07T01:54:22;101733.84;;;18.28;71.19
58821;BME280;70670;52.476;13.334;2023-09-07T01:56:47;101809.53;;;18.70;71.30
58821;BME280;70670;52.476;13.334;2023-09-07T01:59:13;101800.59;;;18.67;71.00
58821;BME280;70670;52.476;13.334;2023-09-07T02:01:39;101804.31;;;18.66;71.26
58821;BME280;70670;52.476;13.334;2023-09-07T02:04:05;101799.97;;;18.64;71.16
58821;BME280;70670;52.476;13.334;2023-09-07T02:06:31;101805.28;;;18.65;71.47
58821;BME280;70670;52.476;13.334;2023-09-07T02:08:57;101799.09;;;18.63;71.36
58821;BME280;70670;52.476;13.334;2023-09-07T02:11:23;101795.88;;;18.58;71.69
58821;BME280;70670;52.476;13.334;2023-09-07T02:13:48;101801.06;;;18.61;71.55
58821;BME280;70670;52.476;13.334;2023-09-07T02:16:14;101795.88;;;18.58;71.46
58821;BME280;70670;52.476;13.334;2023-09-07T02:18:39;101795.22;;;18.55;71.46
58821;BME280;70670;52.476;13.334;2023-09-07T02:21:09;101795.34;;;18.53;71.77
58821;BME280;70670;52.476;13.334;2023-09-07T02:23:35;101792.19;;;18.47;71.85
58821;BME280;70670;52.476;13.334;2023-09-07T02:26:03;101794.97;;;18.45;72.03
58821;BME280;70670;52.476;13.334;2023-09-07T02:28:29;101784.81;;;18.36;71.86
58821;BME280;70670;52.476;13.334;2023-09-07T02:31:02;101776.69;;;18.36;72.06
58821;BME280;70670;52.476;13.334;2023-09-07T02:33:28;101750.53;;;18.09;71.90
58821;BME280;70670;52.476;13.334;2023-09-07T02:35:53;101744.19;;;18.10;71.72
58821;BME280;70670;52.476;13.334;2023-09-07T02:38:19;101783.94;;;18.35;71.52
58821;BME280;70670;52.476;13.334;2023-09-07T02:40:46;101795.31;;;18.40;71.51
58821;BME280;70670;52.476;13.334;2023-09-07T02:43:11;101786.88;;;18.32;71.58
58821;BME280;70670;52.476;13.334;2023-09-07T02:45:38;101688.69;;;17.78;71.51
58821;BME280;70670;52.476;13.334;2023-09-07T02:48:04;101793.59;;;18.39;71.58
58821;BME280;70670;52.476;13.334;2023-09-07T02:50:32;101804.56;;;18.38;71.25
58821;BME280;70670;52.476;13.334;2023-09-07T02:52:58;101805.97;;;18.31;71.52
58821;BME280;70670;52.476;13.334;2023-09-07T02:55:24;101790.44;;;18.20;71.42
58821;BME280;70670;52.476;13.334;2023-09-07T02:57:49;101803.91;;;18.22;71.75
58821;BME280;70670;52.476;13.334;2023-09-07T03:00:15;101809.41;;;18.20;71.75
58821;BME280;70670;52.476;13.334;2023-09-07T03:02:45;101808.63;;;18.05;71.95
58821;BME280;70670;52.476;13.334;2023-09-07T03:05:11;101805.38;;;18.00;72.22
58821;BME280;70670;52.476;13.334;2023-09-07T03:07:36;101794.41;;;17.89;72.71
58821;BME280;70670;52.476;13.334;2023-09-07T03:10:02;101804.06;;;17.93;72.47
58821;BME280;70670;52.476;13.334;2023-09-07T03:12:28;101809.91;;;17.87;72.75
58821;BME280;70670;52.476;13.334;2023-09-07T03:14:54;101810.91;;;17.86;72.72
58821;BME280;70670;52.476;13.334;2023-09-07T03:17:19;101810.78;;;17.87;72.63
58821;BME280;70670;52.476;13.334;2023-09-07T03:19:48;101810.00;;;17.85;72.47
58821;BME280;70670;52.476;13.334;2023-09-07T03:22:13;101810.91;;;17.86;72.47
58821;BME280;70670;52.476;13.334;2023-09-07T03:24:40;101798.53;;;17.82;72.27
58821;BME280;70670;52.476;13.334;2023-09-07T03:27:05;101797.34;;;17.86;72.49
58821;BME280;70670;52.476;13.334;2023-09-07T03:29:31;101807.00;;;17.90;72.22
58821;BME280;70670;52.476;13.334;2023-09-07T03:31:59;101815.13;;;17.90;72.40
58821;BME280;70670;52.476;13.334;2023-09-07T03:34:25;101802.97;;;17.83;72.47
58821;BME280;70670;52.476;13.334;2023-09-07T03:36:50;101788.59;;;17.68;72.48
58821;BME280;70670;52.476;13.334;2023-09-07T03:39:16;101807.94;;;17.76;72.35
58821;BME280;70670;52.476;13.334;2023-09-07T03:41:44;101786.09;;;17.65;72.84
58821;BME280;70670;52.476;13.334;2023-09-07T03:44:10;101758.78;;;17.42;72.84
58821;BME280;70670;52.476;13.334;2023-09-07T03:46:35;101803.78;;;17.70;72.62
58821;BME280;70670;52.476;13.334;2023-09-07T03:49:01;101804.72;;;17.69;72.75
58821;BME280;70670;52.476;13.334;2023-09-07T03:51:27;101758.84;;;17.41;72.81
58821;BME280;70670;52.476;13.334;2023-09-07T03:53:52;101777.81;;;17.54;73.07
58821;BME280;70670;52.476;13.334;2023-09-07T03:56:18;101807.00;;;17.63;73.11
58821;BME280;70670;52.476;13.334;2023-09-07T03:58:44;101776.22;;;17.51;73.25
58821;BME280;70670;52.476;13.334;2023-09-07T04:01:09;101809.78;;;17.61;73.51
58821;BME280;70670;52.476;13.334;2023-09-07T04:03:35;101808.63;;;17.65;73.47
58821;BME280;70670;52.476;13.334;2023-09-07T04:06:00;101759.00;;;17.25;73.59
58821;BME280;70670;52.476;13.334;2023-09-07T04:08:26;101744.66;;;17.10;73.76
58821;BME280;70670;52.476;13.334;2023-09-07T04:10:52;101805.41;;;17.46;73.73
58821;BME280;70670;52.476;13.334;2023-09-07T04:13:17;101809.97;;;17.45;74.05
58821;BME280;70670;52.476;13.334;2023-09-07T04:15:44;101803.88;;;17.42;74.00
58821;BME280;70670;52.476;13.334;2023-09-07T04:18:11;101823.22;;;17.50;73.71
58821;BME280;70670;52.476;13.334;2023-09-07T04:20:38;101796.19;;;17.36;74.01
58821;BME280;70670;52.476;13.334;2023-09-07T04:23:05;101773.81;;;17.19;73.87
58821;BME280;70670;52.476;13.334;2023-09-07T04:25:30;101819.25;;;17.41;73.88
58821;BME280;70670;52.476;13.334;2023-09-07T04:27:58;101822.81;;;17.42;74.05
58821;BME280;70670;52.476;13.334;2023-09-07T04:30:23;101790.13;;;17.18;73.98
58821;BME280;70670;52.476;13.334;2023-09-07T04:32:49;101758.81;;;17.01;74.19
58821;BME280;70670;52.476;13.334;2023-09-07T04:35:15;101825.66;;;17.26;74.24
58821;BME280;70670;52.476;13.334;2023-09-07T04:37:44;101826.56;;;17.27;74.63
58821;BME280;70670;52.476;13.334;2023-09-07T04:40:10;101826.19;;;17.18;74.74
58821;BME280;70670;52.476;13.334;2023-09-07T04:42:36;101831.19;;;17.25;74.85
58821;BME280;70670;52.476;13.334;2023-09-07T04:45:05;101781.91;;;16.92;74.93
58821;BME280;70670;52.476;13.334;2023-09-07T04:47:30;101818.53;;;17.25;74.68
58821;BME280;70670;52.476;13.334;2023-09-07T04:49:56;101765.13;;;16.87;74.82
58821;BME280;70670;52.476;13.334;2023-09-07T04:52:22;101830.03;;;17.29;74.72
58821;BME280;70670;52.476;13.334;2023-09-07T04:54:47;101839.00;;;17.29;74.88
58821;BME280;70670;52.476;13.334;2023-09-07T04:57:16;101795.69;;;17.02;74.83
58821;BME280;70670;52.476;13.334;2023-09-07T04:59:42;101790.09;;;17.05;74.60
58821;BME280;70670;52.476;13.334;2023-09-07T05:02:08;101832.16;;;17.24;75.02
58821;BME280;70670;52.476;13.334;2023-09-07T05:04:33;101810.84;;;17.19;74.66
58821;BME280;70670;52.476;13.334;2023-09-07T05:06:59;101836.22;;;17.31;74.73
58821;BME280;70670;52.476;13.334;2023-09-07T05:09:24;101830.88;;;17.29;74.78
58821;BME280;70670;52.476;13.334;2023-09-07T05:11:50;101821.16;;;17.27;74.38
58821;BME280;70670;52.476;13.334;2023-09-07T05:14:16;101821.72;;;17.32;74.47
58821;BME280;70670;52.476;13.334;2023-09-07T05:16:42;101836.34;;;17.42;74.38
58821;BME280;70670;52.476;13.334;2023-09-07T05:19:08;101795.53;;;17.18;74.01
58821;BME280;70670;52.476;13.334;2023-09-07T05:21:34;101834.22;;;17.47;73.70
58821;BME280;70670;52.476;13.334;2023-09-07T05:24:00;101840.75;;;17.57;73.59
58821;BME280;70670;52.476;13.334;2023-09-07T05:26:25;101804.97;;;17.39;73.49
58821;BME280;70670;52.476;13.334;2023-09-07T05:28:51;101834.28;;;17.60;73.10
58821;BME280;70670;52.476;13.334;2023-09-07T05:31:17;101837.34;;;17.68;72.99
58821;BME280;70670;52.476;13.334;2023-09-07T05:33:42;101838.69;;;17.75;72.86
58821;BME280;70670;52.476;13.334;2023-09-07T05:36:08;101790.72;;;17.50;72.88
58821;BME280;70670;52.476;13.334;2023-09-07T05:38:33;101829.47;;;17.78;72.30
58821;BME280;70670;52.476;13.334;2023-09-07T05:41:00;101846.66;;;17.91;72.22
58821;BME280;70670;52.476;13.334;2023-09-07T05:43:25;101836.34;;;17.83;71.68
58821;BME280;70670;52.476;13.334;2023-09-07T05:45:51;101787.19;;;17.62;71.47
58821;BME280;70670;52.476;13.334;2023-09-07T05:48:16;101861.84;;;18.06;70.89
58821;BME280;70670;52.476;13.334;2023-09-07T05:50:43;101858.63;;;18.14;70.71
58821;BME280;70670;52.476;13.334;2023-09-07T05:53:08;101860.03;;;18.19;70.25
58821;BME280;70670;52.476;13.334;2023-09-07T05:55:34;101845.50;;;18.21;69.92
58821;BME280;70670;52.476;13.334;2023-09-07T05:58:03;101857.56;;;18.29;70.04
58821;BME280;70670;52.476;13.334;2023-09-07T06:00:29;101865.69;;;18.42;69.80
58821;BME280;70670;52.476;13.334;2023-09-07T06:02:55;101860.50;;;18.52;69.50
58821;BME280;70670;52.476;13.334;2023-09-07T06:05:21;101867.34;;;18.57;68.97
58821;BME280;70670;52.476;13.334;2023-09-07T06:07:46;101862.25;;;18.65;68.89
58821;BME280;70670;52.476;13.334;2023-09-07T06:10:12;101825.16;;;18.53;68.73
58821;BME280;70670;52.476;13.334;2023-09-07T06:12:38;101856.72;;;18.80;68.58
58821;BME280;70670;52.476;13.334;2023-09-07T06:15:04;101868.34;;;18.82;68.67
58821;BME280;70670;52.476;13.334;2023-09-07T06:17:29;101853.78;;;18.83;67.80
58821;BME280;70670;52.476;13.334;2023-09-07T06:19:57;101805.59;;;18.61;67.70
58821;BME280;70670;52.476;13.334;2023-09-07T06:22:22;101809.72;;;18.66;67.54
58821;BME280;70670;52.476;13.334;2023-09-07T06:24:48;101820.59;;;18.79;67.08
58821;BME280;70670;52.476;13.334;2023-09-07T06:27:14;101852.47;;;19.01;66.59
58821;BME280;70670;52.476;13.334;2023-09-07T06:29:40;101862.41;;;19.13;66.35
58821;BME280;70670;52.476;13.334;2023-09-07T06:32:05;101871.59;;;19.24;65.89
58821;BME280;70670;52.476;13.334;2023-09-07T06:34:31;101866.59;;;19.30;65.39
58821;BME280;70670;52.476;13.334;2023-09-07T06:36:56;101867.97;;;19.36;64.98
58821;BME280;70670;52.476;13.334;2023-09-07T06:39:22;101858.88;;;19.37;65.02
58821;BME280;70670;52.476;13.334;2023-09-07T06:41:48;101858.63;;;19.40;64.40
58821;BME280;70670;52.476;13.334;2023-09-07T06:44:13;101862.41;;;19.50;64.28
58821;BME280;70670;52.476;13.334;2023-09-07T06:46:39;101868.91;;;19.60;64.25
58821;BME280;70670;52.476;13.334;2023-09-07T06:49:05;101865.72;;;19.67;63.60
58821;BME280;70670;52.476;13.334;2023-09-07T06:51:31;101864.66;;;19.69;62.77
58821;BME280;70670;52.476;13.334;2023-09-07T06:53:57;101871.47;;;19.75;62.67
58821;BME280;70670;52.476;13.334;2023-09-07T06:56:23;101869.78;;;19.85;62.46
58821;BME280;70670;52.476;13.334;2023-09-07T06:58:49;101867.84;;;19.98;62.30
58821;BME280;70670;52.476;13.334;2023-09-07T07:01:15;101871.63;;;20.08;61.94
58821;BME280;70670;52.476;13.334;2023-09-07T07:03:41;101868.41;;;20.14;61.51
58821;BME280;70670;52.476;13.334;2023-09-07T07:06:07;101861.47;;;20.10;60.41
58821;BME280;70670;52.476;13.334;2023-09-07T07:08:32;101883.44;;;20.31;60.93
58821;BME280;70670;52.476;13.334;2023-09-07T07:10:58;101884.78;;;20.37;60.54
58821;BME280;70670;52.476;13.334;2023-09-07T07:13:24;101812.28;;;20.02;60.33
58821;BME280;70670;52.476;13.334;2023-09-07T07:15:49;101867.47;;;20.38;60.24
58821;BME280;70670;52.476;13.334;2023-09-07T07:18:15;101880.66;;;20.55;60.10
58821;BME280;70670;52.476;13.334;2023-09-07T07:20:42;101867.69;;;20.59;59.81
58821;BME280;70670;52.476;13.334;2023-09-07T07:23:09;101880.31;;;20.71;59.95
58821;BME280;70670;52.476;13.334;2023-09-07T07:25:35;101839.13;;;20.53;59.45
58821;BME280;70670;52.476;13.334;2023-09-07T07:28:03;101843.47;;;20.67;59.54
58821;BME280;70670;52.476;13.334;2023-09-07T07:30:36;101882.41;;;21.01;58.92
58821;BME280;70670;52.476;13.334;2023-09-07T07:33:03;101871.16;;;21.06;58.70
58821;BME280;70670;52.476;13.334;2023-09-07T07:35:29;101879.22;;;21.19;58.43
58821;BME280;70670;52.476;13.334;2023-09-07T07:37:55;101871.38;;;21.25;57.70
58821;BME280;70670;52.476;13.334;2023-09-07T07:40:21;101833.56;;;21.11;57.96
58821;BME280;70670;52.476;13.334;2023-09-07T07:42:47;101879.16;;;21.52;57.82
58821;BME280;70670;52.476;13.334;2023-09-07T07:45:13;101842.44;;;21.35;57.33
58821;BME280;70670;52.476;13.334;2023-09-07T07:47:40;101846.25;;;21.44;56.80
58821;BME280;70670;52.476;13.334;2023-09-07T07:50:06;101873.16;;;21.70;56.57
58821;BME280;70670;52.476;13.334;2023-09-07T07:52:32;101892.44;;;21.89;56.52
58821;BME280;70670;52.476;13.334;2023-09-07T07:54:57;101829.09;;;21.65;56.33
58821;BME280;70670;52.476;13.334;2023-09-07T07:57:23;101873.31;;;22.00;55.41
58821;BME280;70670;52.476;13.334;2023-09-07T07:59:48;101877.72;;;22.13;55.21
58821;BME280;70670;52.476;13.334;2023-09-07T08:02:14;101830.03;;;21.86;55.21
58821;BME280;70670;52.476;13.334;2023-09-07T08:04:40;101851.00;;;22.06;54.74
58821;BME280;70670;52.476;13.334;2023-09-07T08:07:05;101879.50;;;22.34;54.04
58821;BME280;70670;52.476;13.334;2023-09-07T08:09:34;101887.03;;;22.42;54.76
58821;BME280;70670;52.476;13.334;2023-09-07T08:11:59;101891.41;;;22.54;54.46
58821;BME280;70670;52.476;13.334;2023-09-07T08:14:28;101853.47;;;22.51;53.89
58821;BME280;70670;52.476;13.334;2023-09-07T08:16:54;101883.50;;;22.82;53.20
58821;BME280;70670;52.476;13.334;2023-09-07T08:19:19;101841.81;;;22.70;53.17
58821;BME280;70670;52.476;13.334;2023-09-07T08:21:45;101877.75;;;23.06;52.01
58821;BME280;70670;52.476;13.334;2023-09-07T08:24:11;101884.09;;;23.16;51.33
58821;BME280;70670;52.476;13.334;2023-09-07T08:26:37;101881.16;;;23.29;51.66
58821;BME280;70670;52.476;13.334;2023-09-07T08:29:03;101886.78;;;23.37;51.21
58821;BME280;70670;52.476;13.334;2023-09-07T08:31:34;101872.53;;;23.43;51.00
58821;BME280;70670;52.476;13.334;2023-09-07T08:34:01;101879.50;;;23.57;50.69
58821;BME280;70670;52.476;13.334;2023-09-07T08:36:29;101876.78;;;23.67;48.16
58821;BME280;70670;52.476;13.334;2023-09-07T08:38:57;101872.66;;;23.72;47.88
58821;BME280;70670;52.476;13.334;2023-09-07T08:41:26;101881.00;;;23.80;48.62
58821;BME280;70670;52.476;13.334;2023-09-07T08:43:54;101841.56;;;23.73;48.64
58821;BME280;70670;52.476;13.334;2023-09-07T08:46:22;101867.19;;;24.01;47.75
58821;BME280;70670;52.476;13.334;2023-09-07T08:48:49;101865.59;;;24.09;47.18
58821;BME280;70670;52.476;13.334;2023-09-07T08:51:17;101874.25;;;24.23;46.50
58821;BME280;70670;52.476;13.334;2023-09-07T08:53:43;101871.47;;;24.33;46.02
58821;BME280;70670;52.476;13.334;2023-09-07T08:56:12;101859.38;;;24.36;44.67
58821;BME280;70670;52.476;13.334;2023-09-07T08:58:38;101841.53;;;24.32;44.74
58821;BME280;70670;52.476;13.334;2023-09-07T09:01:05;101871.19;;;24.56;44.30
58821;BME280;70670;52.476;13.334;2023-09-07T09:03:31;101874.34;;;24.61;44.98
58821;BME280;70670;52.476;13.334;2023-09-07T09:05:57;101855.34;;;24.59;44.62
58821;BME280;70670;52.476;13.334;2023-09-07T09:08:23;101859.34;;;24.65;45.07
58821;BME280;70670;52.476;13.334;2023-09-07T09:10:59;101877.41;;;24.85;44.66
58821;BME280;70670;52.476;13.334;2023-09-07T09:13:29;101871.34;;;24.91;44.03
58821;BME280;70670;52.476;13.334;2023-09-07T09:15:55;101859.66;;;24.99;44.52
58821;BME280;70670;52.476;13.334;2023-09-07T09:18:20;101872.41;;;25.18;44.48
58821;BME280;70670;52.476;13.334;2023-09-07T09:20:46;101868.03;;;25.25;43.96
58821;BME280;70670;52.476;13.334;2023-09-07T09:23:12;101863.69;;;25.32;44.02
58821;BME280;70670;52.476;13.334;2023-09-07T09:25:41;101873.72;;;25.41;43.06
58821;BME280;70670;52.476;13.334;2023-09-07T09:28:09;101870.50;;;25.46;43.08
58821;BME280;70670;52.476;13.334;2023-09-07T09:30:35;101866.47;;;25.50;42.60
58821;BME280;70670;52.476;13.334;2023-09-07T09:33:01;101854.88;;;25.56;42.95
58821;BME280;70670;52.476;13.334;2023-09-07T09:35:26;101854.34;;;25.70;42.69
58821;BME280;70670;52.476;13.334;2023-09-07T09:37:52;101845.94;;;25.72;42.15
58821;BME280;70670;52.476;13.334;2023-09-07T09:40:18;101854.53;;;25.87;42.30
58821;BME280;70670;52.476;13.334;2023-09-07T09:42:44;101802.88;;;25.64;41.87
58821;BME280;70670;52.476;13.334;2023-09-07T09:45:11;101838.47;;;25.92;41.70
58821;BME280;70670;52.476;13.334;2023-09-07T09:47:41;101774.75;;;25.62;41.42
58821;BME280;70670;52.476;13.334;2023-09-07T09:50:10;101821.22;;;25.99;41.90
58821;BME280;70670;52.476;13.334;2023-09-07T09:52:37;101848.78;;;26.16;40.79
58821;BME280;70670;52.476;13.334;2023-09-07T09:55:04;101841.66;;;26.05;39.88
58821;BME280;70670;52.476;13.334;2023-09-07T09:57:35;101847.69;;;26.09;41.13
58821;BME280;70670;52.476;13.334;2023-09-07T10:00:02;101847.53;;;26.10;40.53
58821;BME280;70670;52.476;13.334;2023-09-07T10:03:02;101845.00;;;26.17;40.09
58821;BME280;70670;52.476;13.334;2023-09-07T10:05:30;101840.78;;;26.22;39.95
58821;BME280;70670;52.476;13.334;2023-09-07T10:08:01;101823.09;;;26.25;40.36
58821;BME280;70670;52.476;13.334;2023-09-07T10:10:35;101837.13;;;26.40;39.52
58821;BME280;70670;52.476;13.334;2023-09-07T10:13:02;101841.75;;;26.39;39.56
58821;BME280;70670;52.476;13.334;2023-09-07T10:15:29;101840.25;;;26.45;39.39
58821;BME280;70670;52.476;13.334;2023-09-07T10:18:14;101829.06;;;26.38;39.75
58821;BME280;70670;52.476;13.334;2023-09-07T10:20:53;101784.50;;;26.18;39.21
58821;BME280;70670;52.476;13.334;2023-09-07T10:23:19;101831.22;;;26.53;39.80
58821;BME280;70670;52.476;13.334;2023-09-07T10:25:52;101782.41;;;26.38;39.30
58821;BME280;70670;52.476;13.334;2023-09-07T10:28:22;101824.31;;;26.75;38.69
58821;BME280;70670;52.476;13.334;2023-09-07T10:31:05;101819.06;;;26.81;39.00
58821;BME280;70670;52.476;13.334;2023-09-07T10:33:33;101824.75;;;26.96;38.24
58821;BME280;70670;52.476;13.334;2023-09-07T10:36:00;101840.41;;;27.04;38.21
58821;BME280;70670;52.476;13.334;2023-09-07T10:38:26;101817.75;;;27.02;38.57
58821;BME280;70670;52.476;13.334;2023-09-07T10:40:56;101825.75;;;27.13;38.28
58821;BME280;70670;52.476;13.334;2023-09-07T10:43:26;101765.16;;;26.88;37.80
58821;BME280;70670;52.476;13.334;2023-09-07T10:45:54;101769.66;;;26.97;38.21
58821;BME280;70670;52.476;13.334;2023-09-07T10:48:19;101809.63;;;27.26;37.44
58821;BME280;70670;52.476;13.334;2023-09-07T10:50:46;101817.72;;;27.36;37.01
58821;BME280;70670;52.476;13.334;2023-09-07T10:53:24;101805.00;;;27.35;37.06
58821;BME280;70670;52.476;13.334;2023-09-07T10:55:50;101817.25;;;27.40;37.75
58821;BME280;70670;52.476;13.334;2023-09-07T10:58:33;101803.50;;;27.40;37.46
58821;BME280;70670;52.476;13.334;2023-09-07T11:00:59;101807.97;;;27.50;38.23
58821;BME280;70670;52.476;13.334;2023-09-07T11:03:26;101811.06;;;27.55;37.27
58821;BME280;70670;52.476;13.334;2023-09-07T11:06:01;101807.97;;;27.58;37.99
58821;BME280;70670;52.476;13.334;2023-09-07T11:08:31;101803.34;;;27.58;36.77
58821;BME280;70670;52.476;13.334;2023-09-07T11:10:58;101804.38;;;27.65;36.77
58821;BME280;70670;52.476;13.334;2023-09-07T11:13:24;101755.00;;;27.39;36.84
58821;BME280;70670;52.476;13.334;2023-09-07T11:15:53;101794.56;;;27.71;35.92
58821;BME280;70670;52.476;13.334;2023-09-07T11:18:20;101811.28;;;27.78;35.60
58821;BME280;70670;52.476;13.334;2023-09-07T11:20:50;101803.56;;;27.81;36.18
58821;BME280;70670;52.476;13.334;2023-09-07T11:23:20;101791.81;;;27.63;36.47
58821;BME280;70670;52.476;13.334;2023-09-07T11:25:48;101793.91;;;27.69;37.12
58821;BME280;70670;52.476;13.334;2023-09-07T11:28:15;101758.47;;;27.66;36.98
58821;BME280;70670;52.476;13.334;2023-09-07T11:30:54;101788.44;;;27.93;36.72
58821;BME280;70670;52.476;13.334;2023-09-07T11:33:22;101786.38;;;27.96;35.96
58821;BME280;70670;52.476;13.334;2023-09-07T11:35:48;101776.22;;;27.96;35.80
58821;BME280;70670;52.476;13.334;2023-09-07T11:38:15;101784.47;;;28.12;35.85
58821;BME280;70670;52.476;13.334;2023-09-07T11:40:41;101776.03;;;28.06;34.82
58821;BME280;70670;52.476;13.334;2023-09-07T11:43:10;101785.31;;;28.13;34.54
58821;BME280;70670;52.476;13.334;2023-09-07T11:45:36;101786.88;;;28.24;34.48
58821;BME280;70670;52.476;13.334;2023-09-07T11:48:02;101775.66;;;28.25;33.81
58821;BME280;70670;52.476;13.334;2023-09-07T11:50:27;101783.91;;;28.33;33.65
58821;BME280;70670;52.476;13.334;2023-09-07T11:52:56;101792.16;;;28.33;33.60
58821;BME280;70670;52.476;13.334;2023-09-07T11:55:22;101736.66;;;28.05;33.59
58821;BME280;70670;52.476;13.334;2023-09-07T11:57:47;101730.97;;;27.99;33.90
58821;BME280;70670;52.476;13.334;2023-09-07T12:00:14;101724.09;;;28.03;33.76
58821;BME280;70670;52.476;13.334;2023-09-07T12:02:40;101778.06;;;28.45;33.37
58821;BME280;70670;52.476;13.334;2023-09-07T12:05:07;101777.19;;;28.52;33.75
58821;BME280;70670;52.476;13.334;2023-09-07T12:07:40;101779.06;;;28.60;33.34
58821;BME280;70670;52.476;13.334;2023-09-07T12:10:06;101723.03;;;28.20;34.29
58821;BME280;70670;52.476;13.334;2023-09-07T12:12:36;101745.69;;;28.47;34.02
58821;BME280;70670;52.476;13.334;2023-09-07T12:15:02;101716.13;;;28.32;33.37
58821;BME280;70670;52.476;13.334;2023-09-07T12:17:30;101778.72;;;28.63;33.57
58821;BME280;70670;52.476;13.334;2023-09-07T12:19:56;101776.81;;;28.63;33.70
58821;BME280;70670;52.476;13.334;2023-09-07T12:22:21;101777.81;;;28.62;32.97
58821;BME280;70670;52.476;13.334;2023-09-07T12:24:47;101743.66;;;28.40;33.35
58821;BME280;70670;52.476;13.334;2023-09-07T12:27:12;101782.13;;;28.65;33.19
58821;BME280;70670;52.476;13.334;2023-09-07T12:29:38;101774.19;;;28.70;33.31
58821;BME280;70670;52.476;13.334;2023-09-07T12:32:04;101773.19;;;28.63;33.27
58821;BME280;70670;52.476;13.334;2023-09-07T12:34:30;101781.47;;;28.63;33.63
58821;BME280;70670;52.476;13.334;2023-09-07T12:36:55;101735.56;;;28.31;33.26
58821;BME280;70670;52.476;13.334;2023-09-07T12:39:21;101719.91;;;28.31;34.05